createdAt,value
2022-10-03T00:01:27.284Z,73.89
2022-10-03T00:07:22.379Z,73.66
2022-10-03T00:12:54.756Z,73.63
2022-10-03T00:18:31.577Z,73.28
2022-10-03T00:23:38.835Z,73.21
2022-10-03T00:28:43.112Z,74.02
2022-10-03T00:34:01.327Z,73.22
2022-10-03T00:39:36.312Z,72.89
2022-10-03T00:44:46.852Z,72.50
2022-10-03T00:50:22.045Z,72.34
2022-10-03T00:55:57.932Z,72.57
2022-10-03T01:01:40.362Z,72.15
2022-10-03T01:06:49.167Z,72.82
2022-10-03T01:12:01.636Z,73.17
2022-10-03T01:17:19.661Z,72.91
2022-10-03T01:22:23.759Z,72.70
2022-10-03T01:28:06.065Z,72.51
2022-10-03T01:33:18.610Z,72.53
2022-10-03T01:38:39.050Z,73.33
2022-10-03T01:44:01.924Z,73.33
2022-10-03T01:49:23.261Z,73.59
2022-10-03T01:54:37.648Z,73.73
2022-10-03T01:59:58.866Z,73.70
2022-10-03T02:05:13.099Z,73.37
2022-10-03T02:10:36.191Z,74.15
2022-10-03T02:15:55.616Z,73.90
2022-10-03T02:21:14.961Z,74.38
2022-10-03T02:26:37.904Z,74.07
2022-10-03T02:32:18.315Z,74.44
2022-10-03T02:37:35.245Z,74.87
2022-10-03T02:43:16.221Z,74.96
2022-10-03T02:48:36.134Z,74.30
2022-10-03T02:54:03.252Z,75.33
2022-10-03T02:59:07.612Z,74.65
2022-10-03T03:04:42.860Z,74.75
2022-10-03T03:09:49.985Z,74.93
2022-10-03T03:15:21.649Z,74.94
2022-10-03T03:20:42.366Z,74.61
2022-10-03T03:26:01.895Z,75.18
2022-10-03T03:31:13.702Z,74.84
2022-10-03T03:36:26.498Z,75.17
2022-10-03T03:41:50.952Z,74.81
2022-10-03T03:47:08.832Z,75.84
2022-10-03T03:52:41.741Z,76.32
2022-10-03T03:58:00.855Z,75.55
2022-10-03T04:03:09.246Z,75.57
2022-10-03T04:08:22.436Z,75.35
2022-10-03T04:13:47.735Z,75.43
2022-10-03T04:19:00.635Z,75.76
2022-10-03T04:24:23.826Z,75.68
2022-10-03T04:30:00.252Z,75.43
2022-10-03T04:35:17.213Z,75.97
2022-10-03T04:40:48.368Z,76.01
2022-10-03T04:46:27.131Z,75.58
2022-10-03T04:51:52.100Z,75.49
2022-10-03T04:57:23.418Z,75.01
2022-10-03T05:02:34.561Z,75.22
2022-10-03T05:07:50.869Z,74.56
2022-10-03T05:13:22.911Z,74.75
2022-10-03T05:18:49.069Z,75.24
2022-10-03T05:24:19.171Z,75.60
2022-10-03T05:29:47.815Z,75.48
2022-10-03T05:34:55.225Z,75.27
2022-10-03T05:40:01.408Z,75.53
2022-10-03T05:45:43.204Z,75.48
2022-10-03T05:50:57.750Z,74.28
2022-10-03T05:56:26.877Z,73.86
2022-10-03T06:01:48.762Z,73.41
2022-10-03T06:06:53.214Z,73.37
2022-10-03T06:12:03.984Z,73.34
2022-10-03T06:17:51.330Z,73.23
2022-10-03T06:23:17.697Z,73.04
2022-10-03T06:28:51.180Z,72.74
2022-10-03T06:33:55.368Z,73.01
2022-10-03T06:39:34.008Z,73.06
2022-10-03T06:45:09.818Z,73.06
2022-10-03T06:50:42.809Z,73.08
2022-10-03T06:56:31.780Z,73.40
2022-10-03T07:01:55.934Z,73.95
2022-10-03T07:08:02.257Z,73.98
2022-10-03T07:13:42.832Z,73.75
2022-10-03T07:19:02.835Z,73.61
2022-10-03T07:24:25.872Z,73.18
2022-10-03T07:29:46.326Z,73.14
2022-10-03T07:34:47.635Z,73.14
2022-10-03T07:40:04.336Z,73.14
2022-10-03T07:45:34.573Z,73.09
2022-10-03T07:50:44.543Z,73.04
2022-10-03T07:56:27.485Z,72.70
2022-10-03T08:01:50.146Z,72.28
2022-10-03T08:06:57.888Z,72.29
2022-10-03T08:12:40.338Z,71.85
2022-10-03T08:18:07.937Z,71.86
2022-10-03T08:23:29.422Z,71.80
2022-10-03T08:28:49.380Z,71.37
2022-10-03T08:34:05.094Z,71.42
2022-10-03T08:39:13.490Z,70.72
2022-10-03T08:44:59.030Z,70.19
2022-10-03T08:50:30.336Z,69.66
2022-10-03T08:55:45.527Z,68.96
2022-10-03T09:01:13.234Z,68.23
2022-10-03T09:06:26.970Z,67.50
2022-10-03T09:11:46.940Z,66.29
2022-10-03T09:16:55.814Z,64.67
2022-10-03T09:22:10.200Z,64.20
2022-10-03T09:27:42.694Z,63.06
2022-10-03T09:33:21.450Z,61.75
2022-10-03T09:38:38.050Z,60.71
2022-10-03T09:44:17.887Z,60.13
2022-10-03T09:49:40.488Z,59.54
2022-10-03T09:55:01.519Z,58.81
2022-10-03T10:00:11.100Z,58.76
2022-10-03T10:05:18.536Z,57.60
2022-10-03T10:10:20.902Z,57.65
2022-10-03T10:15:45.374Z,57.46
2022-10-03T10:20:59.569Z,57.06
2022-10-03T10:26:38.993Z,57.23
2022-10-03T10:32:05.292Z,56.42
2022-10-03T10:37:57.635Z,57.71
2022-10-03T10:43:20.739Z,57.80
2022-10-03T10:49:03.719Z,56.96
2022-10-03T10:54:56.086Z,55.92
2022-10-03T11:00:12.398Z,55.11
2022-10-03T11:05:19.718Z,55.62
2022-10-03T11:10:33.278Z,54.77
2022-10-03T11:16:04.952Z,54.43
2022-10-03T11:21:27.761Z,54.05
2022-10-03T11:27:15.303Z,53.95
2022-10-03T11:33:15.909Z,54.50
2022-10-03T11:38:30.150Z,53.78
2022-10-03T11:44:01.984Z,52.83
2022-10-03T11:49:26.727Z,51.96
2022-10-03T11:54:37.210Z,52.64
2022-10-03T12:00:07.999Z,52.49
2022-10-03T12:05:27.743Z,51.77
2022-10-03T12:10:33.739Z,51.54
2022-10-03T12:15:55.036Z,52.24
2022-10-03T12:21:18.501Z,52.29
2022-10-03T12:26:37.557Z,51.55
2022-10-03T12:32:05.971Z,51.70
2022-10-03T12:37:18.536Z,51.52
2022-10-03T12:42:26.724Z,51.09
2022-10-03T12:47:55.644Z,50.80
2022-10-03T12:53:11.013Z,51.49
2022-10-03T12:58:32.595Z,51.04
2022-10-03T13:03:51.449Z,51.13
2022-10-03T13:09:22.250Z,50.83
2022-10-03T13:15:18.204Z,51.42
2022-10-03T13:20:39.280Z,50.83
2022-10-03T13:25:51.291Z,50.93
2022-10-03T13:30:56.487Z,50.84
2022-10-03T13:36:14.950Z,50.69
2022-10-03T13:41:16.525Z,51.60
2022-10-03T13:46:27.352Z,50.87
2022-10-03T13:51:45.818Z,50.82
2022-10-03T13:57:05.857Z,51.22
2022-10-03T14:02:46.096Z,50.29
2022-10-03T14:07:57.957Z,49.99
2022-10-03T14:13:32.699Z,50.03
2022-10-03T14:18:57.947Z,49.41
2022-10-03T14:24:34.792Z,49.47
2022-10-03T14:30:04.091Z,49.64
2022-10-03T14:35:24.679Z,50.29
2022-10-03T14:40:35.654Z,50.21
2022-10-03T14:45:48.393Z,50.03
2022-10-03T14:50:54.874Z,50.10
2022-10-03T14:55:59.969Z,50.48
2022-10-03T15:01:07.506Z,50.01
2022-10-03T15:06:35.140Z,51.33
2022-10-03T15:11:45.605Z,50.63
2022-10-03T15:16:54.895Z,50.95
2022-10-03T15:22:12.518Z,50.77
2022-10-03T15:27:21.372Z,51.49
2022-10-03T15:32:32.570Z,51.85
2022-10-03T15:37:46.751Z,52.06
2022-10-03T15:43:02.374Z,52.98
2022-10-03T15:48:12.055Z,53.12
2022-10-03T15:53:37.177Z,53.58
2022-10-03T15:58:52.722Z,53.11
2022-10-03T16:04:01.679Z,53.28
2022-10-03T16:09:14.346Z,52.92
2022-10-03T16:14:26.454Z,53.20
2022-10-03T16:19:31.059Z,53.75
2022-10-03T16:24:48.844Z,53.70
2022-10-03T16:30:09.031Z,54.23
2022-10-03T16:35:28.002Z,54.16
2022-10-03T16:40:30.195Z,54.77
2022-10-03T16:45:37.391Z,54.91
2022-10-03T16:50:49.647Z,55.25
2022-10-03T16:55:59.830Z,55.16
2022-10-03T17:06:31.205Z,56.07
2022-10-03T17:11:37.421Z,56.72
2022-10-03T17:16:50.632Z,58.03
2022-10-03T17:21:55.105Z,58.92
2022-10-03T17:27:03.018Z,59.19
2022-10-03T17:32:20.042Z,59.70
2022-10-03T17:37:46.038Z,60.69
2022-10-03T17:43:01.227Z,61.09
2022-10-03T17:48:18.612Z,61.62
2022-10-03T17:53:28.874Z,61.62
2022-10-03T17:58:32.947Z,62.40
2022-10-03T18:03:48.380Z,62.82
2022-10-03T18:08:52.198Z,63.18
2022-10-03T18:14:07.942Z,63.46
2022-10-03T18:19:43.412Z,63.95
2022-10-03T18:25:22.928Z,64.54
2022-10-03T18:30:45.471Z,64.79
2022-10-03T18:35:49.581Z,64.96
2022-10-03T18:40:50.966Z,64.87
2022-10-03T18:45:59.472Z,65.14
2022-10-03T18:51:11.819Z,65.44
2022-10-03T18:56:20.836Z,65.46
2022-10-03T19:01:32.612Z,65.57
2022-10-03T19:06:54.725Z,66.08
2022-10-03T19:12:15.554Z,65.90
2022-10-03T19:17:31.821Z,66.03
2022-10-03T19:22:40.282Z,66.69
2022-10-03T19:27:49.633Z,66.73
2022-10-03T19:32:58.084Z,66.94
2022-10-03T19:38:13.360Z,66.90
2022-10-03T19:43:34.430Z,67.30
2022-10-03T19:49:02.199Z,67.31
2022-10-03T19:54:12.880Z,67.69
2022-10-03T19:59:17.791Z,67.79
2022-10-03T20:04:36.602Z,67.78
2022-10-03T20:09:44.185Z,67.77
2022-10-03T20:14:51.216Z,68.00
2022-10-03T20:20:01.044Z,68.27
2022-10-03T20:25:06.171Z,68.40
2022-10-03T20:30:25.660Z,68.85
2022-10-03T20:35:31.093Z,68.77
2022-10-03T20:40:40.248Z,68.85
2022-10-03T20:45:44.591Z,69.03
2022-10-03T20:50:48.061Z,69.59
2022-10-03T20:55:59.870Z,69.44
2022-10-03T21:01:11.424Z,69.63
2022-10-03T21:06:27.423Z,69.65
2022-10-03T21:11:32.173Z,70.04
2022-10-03T21:16:35.581Z,69.58
2022-10-03T21:21:45.847Z,70.23
2022-10-03T21:26:55.419Z,70.01
2022-10-03T21:32:17.915Z,70.17
2022-10-03T21:37:37.249Z,70.46
2022-10-03T21:43:04.723Z,70.72
2022-10-03T21:48:21.447Z,70.67
2022-10-03T21:53:39.820Z,70.74
2022-10-03T21:59:00.276Z,70.88
2022-10-03T22:04:21.294Z,70.89
2022-10-03T22:09:22.800Z,70.68
2022-10-03T22:14:49.313Z,70.99
2022-10-03T22:20:23.636Z,70.75
2022-10-03T22:25:39.737Z,70.75
2022-10-03T22:30:51.306Z,70.96
2022-10-03T22:35:55.242Z,71.22
2022-10-03T22:41:01.359Z,71.13
2022-10-03T22:46:04.629Z,70.94
2022-10-03T22:51:10.708Z,70.79
2022-10-03T22:56:43.931Z,70.89
2022-10-03T23:01:47.476Z,71.37
2022-10-03T23:07:36.826Z,71.24
2022-10-03T23:13:17.496Z,71.55
2022-10-03T23:18:46.583Z,71.32
2022-10-03T23:24:03.503Z,71.18
2022-10-03T23:29:07.434Z,71.51
2022-10-03T23:34:09.887Z,71.42
2022-10-03T23:39:32.572Z,71.32
2022-10-03T23:44:49.037Z,71.32
2022-10-03T23:49:51.865Z,71.59
2022-10-03T23:54:57.154Z,71.26
2022-10-03T23:59:58.794Z,71.60
